• Join FlightAware (Why Join?)
  • Login
  • US Flag 
12:03PM EDT


 

Airport Tracker/Info


-or-


 

Live Flight TrackerFlight Track Log ✈ EJA941 ✈ 08-May-2013 ✈ KOKC - KCOU

Flight Track Log - Related Links

Times and Time Zones

All times are in EDT time to prevent confusion due to time zone crossing. See the EJA941 flight status page for this flight to view local times or setup timezone preferences in your user account.

Time Position Orientation Groundspeed Altitude Reporting Facility
EDT Latitude Longitude Course Direction KTS MPH feet Rate Location/Type
01:41PM 35.3811 -97.5944 180° South 163 188 2,100  Level Fort Worth Center
01:42PM 35.3519 -97.5942 180° South 197 227 3,800 3,960 Climbing Fort Worth Center
01:44PM 35.3250 -97.4722 105° East 323 372 10,900 3,060 Climbing Fort Worth Center
01:45PM 35.3500 -97.3603 75° East 328 377 12,200 1,800 Climbing Fort Worth Center
01:46PM 35.3789 -97.2406 73° East 350 403 14,500 2,100 Climbing Fort Worth Center
01:47PM 35.4119 -97.0925 75° East 381 438 16,500 1,980 Climbing Fort Worth Center
01:48PM 35.4431 -96.9600 74° East 392 451 18,500 1,860 Climbing Fort Worth Center
01:49PM 35.4736 -96.8197 75° East 410 472 20,300 1,920 Climbing Fort Worth Center
01:50PM 35.5064 -96.6767 74° East 422 486 22,400 2,040 Climbing Fort Worth Center
01:51PM 35.5408 -96.5308 74° East 428 493 24,400 2,040 Climbing Fort Worth Center
01:52PM 35.5772 -96.3775 74° East 440 506 26,500 2,100 Climbing Fort Worth Center
01:53PM 35.6175 -96.2264 72° East 451 519 28,600 1,800 Climbing Fort Worth Center
01:54PM 35.7181 -96.1372 36° Northeast 476 548 30,300 2,040 Climbing Kansas City Center
01:55PM 35.8631 -96.1153 North 473 544 33,000 1,260 Climbing Kansas City Center
01:56PM 35.9997 -96.1019 North 483 556 33,000  Level Kansas City Center
01:57PM 36.1397 -96.0875 North 496 571 33,000  Level Kansas City Center
01:58PM 36.2744 -96.0753 North 489 563 33,000  Level Kansas City Center
01:59PM 36.4361 -96.0594 North 482 555 33,000  Level Kansas City Center
02:00PM 36.5767 -96.0447 North 494 568 33,000  Level Kansas City Center
02:01PM 36.7189 -96.0300 North 505 581 33,000  Level Kansas City Center
02:02PM 36.8567 -95.9886 14° North 508 585 33,000  Level Kansas City Center
02:03PM 36.9686 -95.8783 38° Northeast 511 588 33,000  Level Kansas City Center
02:04PM 37.0789 -95.7617 40° Northeast 513 590 33,000  Level Kansas City Center
02:05PM 37.1886 -95.6467 40° Northeast 513 590 33,000  Level Kansas City Center
02:06PM 37.2972 -95.5319 40° Northeast 510 587 33,000  Level Kansas City Center
02:07PM 37.4286 -95.3922 40° Northeast 513 590 33,000  Level Kansas City Center
02:08PM 37.5389 -95.2786 39° Northeast 512 589 33,000  Level Kansas City Center
02:09PM 37.6483 -95.1647 39° Northeast 509 586 33,000  Level Kansas City Center
02:10PM 37.7625 -95.0419 40° Northeast 515 593 33,000  Level Kansas City Center
02:11PM 37.8672 -94.9283 41° Northeast 517 595 33,000  Level Kansas City Center
02:12PM 37.9436 -94.7517 61° Northeast 519 597 33,000  Level Kansas City Center
02:13PM 38.0036 -94.5864 65° Northeast 533 613 33,000  Level Kansas City Center
02:14PM 38.0700 -94.3992 66° East 526 605 33,000  Level Kansas City Center
02:15PM 38.1261 -94.2383 66° East 523 602 33,000 -1,080 Level Kansas City Center
02:16PM 38.1911 -94.0561 66° East 527 606 30,800 -2,520 Descending Kansas City Center
02:17PM 38.2517 -93.8800 66° East 536 617 27,900 -2,760 Descending Kansas City Center
02:18PM 38.3144 -93.7067 65° Northeast 539 620 25,100 -2,700 Descending Kansas City Center
02:19PM 38.3706 -93.5431 66° East 517 595 22,400 -2,820 Descending Kansas City Center
02:21PM 38.4361 -93.3542 66° East 493 567 19,300 -2,760 Descending Kansas City Center
02:22PM 38.4869 -93.2025 67° East 475 547 16,800 -2,400 Descending Kansas City Center
02:23PM 38.5392 -93.0503 66° East 468 539 14,400 -2,280 Descending Kansas City Center
02:24PM 38.5831 -92.9192 67° East 409 471 12,200 -1,980 Descending Kansas City Center
02:25PM 38.6225 -92.8047 66° East 365 420 10,400 -2,040 Descending Kansas City Center
02:26PM 38.6561 -92.7019 67° East 331 381 8,100 -2,460 Descending Kansas City Center
02:27PM 38.6869 -92.6103 67° East 299 344 5,400 -2,520 Descending Kansas City Center
02:28PM 38.7186 -92.5189 66° East 288 331 3,000 -1,200 Descending Kansas City Center
02:29PM 38.7903 -92.4453 39° Northeast 280 322 3,000  Level Kansas City Center
02:30PM 38.8492 -92.3903 36° Northeast 269 310 3,000  Level Kansas City Center
02:31PM 38.9119 -92.3328 35° Northeast 270 311 3,000  Level Kansas City Center
02:32PM 38.9714 -92.2750 37° Northeast 270 311 3,000  Level Kansas City Center
02:33PM 39.0106 -92.2117 51° Northeast 258 297 3,000  Level Kansas City Center
02:34PM 38.9850 -92.1461 117° Southeast 238 274 3,000  Level Kansas City Center
02:35PM 38.9308 -92.1569 189° South 213 245 3,000 -420 Level Kansas City Center
02:36PM 38.8825 -92.1839 203° Southwest 198 228 2,200 -780 Descending Kansas City Center
02:37PM 38.8436 -92.2022 200° South 145 167 1,400 -480 Descending Kansas City Center
02:38PM 38.8131 -92.2175 201° Southwest 141 162 1,300 -120 Descending Kansas City Center